Etusivu
METAR-TAF:

METAR-TAF

Lentoasemat :

Heidrun, Norja

Leveyspiiri: 65-19-30N, Pituuspiiri: 007-19-36E, korkeus merenpinnasta: 0 m

Tämänhetkinen sää

Tämä raportti tehtiin 19 minuuttia sitten, kello 19.50 UTC
Tuuli 26 kn kaakosta
Lämpötila 10°C
Kosteus 71%
Ilmanpaine 1016 hPa
Näkyvyys 10 km tai enemmän
ei pilviä alle 1500 m:ssä eikä cumulonimbus-pilviä

METAR: ENHE 241950Z 13026KT CAVOK 10/05 Q1016 W///S3

Aika: 22:09 (20:09 UTC)

Sääennuste

Tämä raportti tehtiin 3 tuntia ja 9 minuuttia sitten, kello 17.00 UTC
Ennuste voimassa 24. päivästä klo 18 UTC - 25. päivään klo 03 UTC
Tuuli 15 kn idästä/kaakosta
Näkyvyys 10 km tai enemmän
ei pilviä alle 1500 m:ssä eikä cumulonimbus-pilviä
Ajoittain
24. päivästä klo 18 UTC - 25. päivään klo 03 UTC
Tuuli 25 kn idästä/kaakosta

TAF: ENHE 241700Z 2418/2503 12015KT CAVOK TEMPO 2418/2503 12025KT

Säähavainnot ja -ennusteet yli 4000 lentoasemalta (METAR- ja TAF-raportit).

Käytössä olevat sääasemat on merkitty karttaan keltaisilla ja punaisilla pisteillä.

Aseta hiiri pisteen päälle nähdäksesi sääaseman nimen.

Klikkaa sitten nähdäksesi säähavainnot ja -ennusteet.

Kartan vaihtaminen: klikkaa mustalla rastilla varustettuja vihreitä pisteitä, niin voit zoomata sisään; viivalla varustettua vihreää pistettä, niin voit zoomata ulos tai vihreitä nuolia, niin pääset viereisille kartoille.


METAR-TAF: